sensor_id;sensor_type;location;lat;lon;timestamp;temperature;humidity
16060;DHT22;8134;49.552;7.632;2023-03-14T08:34:30;10.80;99.90
16060;DHT22;8134;49.552;7.632;2023-03-14T08:36:55;10.80;99.90
16060;DHT22;8134;49.552;7.632;2023-03-14T08:39:22;10.80;99.90
16060;DHT22;8134;49.552;7.632;2023-03-14T08:41:49;10.80;99.90
16060;DHT22;8134;49.552;7.632;2023-03-14T08:44:14;10.80;99.90
16060;DHT22;8134;49.552;7.632;2023-03-14T08:46:40;10.80;99.90
16060;DHT22;8134;49.552;7.632;2023-03-14T08:49:05;10.80;99.90
16060;DHT22;8134;49.552;7.632;2023-03-14T08:51:31;11.00;99.90
16060;DHT22;8134;49.552;7.632;2023-03-14T08:53:56;10.90;99.90
16060;DHT22;8134;49.552;7.632;2023-03-14T08:56:22;10.90;99.90
16060;DHT22;8134;49.552;7.632;2023-03-14T08:58:47;11.00;99.90
16060;DHT22;8134;49.552;7.632;2023-03-14T09:01:13;11.00;99.90
16060;DHT22;8134;49.552;7.632;2023-03-14T09:03:38;11.20;99.90
16060;DHT22;8134;49.552;7.632;2023-03-14T09:06:04;11.10;99.90
16060;DHT22;8134;49.552;7.632;2023-03-14T09:08:31;11.20;99.90
16060;DHT22;8134;49.552;7.632;2023-03-14T09:10:56;11.20;99.90
16060;DHT22;8134;49.552;7.632;2023-03-14T09:13:22;11.30;99.90
16060;DHT22;8134;49.552;7.632;2023-03-14T09:15:55;11.40;99.90
16060;DHT22;8134;49.552;7.632;2023-03-14T09:18:21;11.50;99.90
16060;DHT22;8134;49.552;7.632;2023-03-14T09:20:48;11.50;99.90
16060;DHT22;8134;49.552;7.632;2023-03-14T09:23:13;11.80;99.90
16060;DHT22;8134;49.552;7.632;2023-03-14T09:25:39;11.70;99.90
16060;DHT22;8134;49.552;7.632;2023-03-14T09:28:04;11.70;99.90
16060;DHT22;8134;49.552;7.632;2023-03-14T09:30:30;11.60;99.90
16060;DHT22;8134;49.552;7.632;2023-03-14T09:32:56;11.70;99.90
16060;DHT22;8134;49.552;7.632;2023-03-14T09:35:22;11.60;99.90
16060;DHT22;8134;49.552;7.632;2023-03-14T09:37:48;11.70;99.90
16060;DHT22;8134;49.552;7.632;2023-03-14T09:40:14;11.80;99.90
16060;DHT22;8134;49.552;7.632;2023-03-14T09:42:41;11.80;99.90
16060;DHT22;8134;49.552;7.632;2023-03-14T09:45:18;11.80;99.90
16060;DHT22;8134;49.552;7.632;2023-03-14T09:47:44;11.90;99.90
16060;DHT22;8134;49.552;7.632;2023-03-14T09:50:14;12.00;99.90
16060;DHT22;8134;49.552;7.632;2023-03-14T09:52:40;11.90;99.90
16060;DHT22;8134;49.552;7.632;2023-03-14T09:55:20;11.80;99.90
16060;DHT22;8134;49.552;7.632;2023-03-14T09:57:47;11.80;99.90
16060;DHT22;8134;49.552;7.632;2023-03-14T10:00:18;11.70;99.90
16060;DHT22;8134;49.552;7.632;2023-03-14T10:02:50;11.70;99.90
16060;DHT22;8134;49.552;7.632;2023-03-14T10:05:18;11.70;99.90
16060;DHT22;8134;49.552;7.632;2023-03-14T10:07:44;11.60;99.90
16060;DHT22;8134;49.552;7.632;2023-03-14T10:10:31;11.50;99.90
16060;DHT22;8134;49.552;7.632;2023-03-14T10:13:10;11.50;99.90
16060;DHT22;8134;49.552;7.632;2023-03-14T10:15:37;11.40;99.90
16060;DHT22;8134;49.552;7.632;2023-03-14T10:18:03;11.30;99.90
16060;DHT22;8134;49.552;7.632;2023-03-14T10:20:30;11.30;99.90
16060;DHT22;8134;49.552;7.632;2023-03-14T10:23:00;11.20;99.90
16060;DHT22;8134;49.552;7.632;2023-03-14T10:25:29;11.20;99.90
16060;DHT22;8134;49.552;7.632;2023-03-14T10:27:55;11.30;99.90
16060;DHT22;8134;49.552;7.632;2023-03-14T10:30:33;11.40;99.90
16060;DHT22;8134;49.552;7.632;2023-03-14T10:33:10;11.40;99.90
16060;DHT22;8134;49.552;7.632;2023-03-14T10:35:35;11.40;99.90
16060;DHT22;8134;49.552;7.632;2023-03-14T10:38:02;11.30;99.90
16060;DHT22;8134;49.552;7.632;2023-03-14T10:40:32;11.30;99.90
16060;DHT22;8134;49.552;7.632;2023-03-14T10:42:59;11.20;99.90
16060;DHT22;8134;49.552;7.632;2023-03-14T10:45:29;11.20;99.90
16060;DHT22;8134;49.552;7.632;2023-03-14T10:47:57;11.30;99.90
16060;DHT22;8134;49.552;7.632;2023-03-14T10:50:24;11.30;99.90
16060;DHT22;8134;49.552;7.632;2023-03-14T10:52:51;11.30;99.90
16060;DHT22;8134;49.552;7.632;2023-03-14T10:55:17;11.50;99.90
16060;DHT22;8134;49.552;7.632;2023-03-14T10:57:43;11.30;99.90
16060;DHT22;8134;49.552;7.632;2023-03-14T11:00:29;11.50;99.90
16060;DHT22;8134;49.552;7.632;2023-03-14T11:05:41;11.70;99.90
16060;DHT22;8134;49.552;7.632;2023-03-14T11:08:17;11.70;99.90
16060;DHT22;8134;49.552;7.632;2023-03-14T11:10:45;11.60;99.90
16060;DHT22;8134;49.552;7.632;2023-03-14T11:15:45;11.60;99.90
16060;DHT22;8134;49.552;7.632;2023-03-14T11:18:30;11.50;99.90
16060;DHT22;8134;49.552;7.632;2023-03-14T11:21:08;11.40;99.90
16060;DHT22;8134;49.552;7.632;2023-03-14T11:28:54;11.20;99.90
16060;DHT22;8134;49.552;7.632;2023-03-14T11:31:25;11.00;99.90
16060;DHT22;8134;49.552;7.632;2023-03-14T11:34:01;10.80;99.90
16060;DHT22;8134;49.552;7.632;2023-03-14T11:36:30;10.80;99.90
16060;DHT22;8134;49.552;7.632;2023-03-14T11:38:57;10.70;99.90
16060;DHT22;8134;49.552;7.632;2023-03-14T11:41:30;10.60;99.90
16060;DHT22;8134;49.552;7.632;2023-03-14T11:43:58;10.50;99.90
16060;DHT22;8134;49.552;7.632;2023-03-14T11:46:29;10.60;99.90
16060;DHT22;8134;49.552;7.632;2023-03-14T11:51:25;10.60;99.90
16060;DHT22;8134;49.552;7.632;2023-03-14T11:54:04;10.80;99.90
16060;DHT22;8134;49.552;7.632;2023-03-14T11:59:00;11.10;99.90
16060;DHT22;8134;49.552;7.632;2023-03-14T12:01:34;11.20;99.90
16060;DHT22;8134;49.552;7.632;2023-03-14T12:04:05;11.20;99.90
16060;DHT22;8134;49.552;7.632;2023-03-14T12:06:38;11.20;99.90
16060;DHT22;8134;49.552;7.632;2023-03-14T12:09:07;11.20;99.90
16060;DHT22;8134;49.552;7.632;2023-03-14T12:11:42;11.40;99.90
16060;DHT22;8134;49.552;7.632;2023-03-14T12:17:05;11.20;99.90
16060;DHT22;8134;49.552;7.632;2023-03-14T12:19:35;10.80;99.90
16060;DHT22;8134;49.552;7.632;2023-03-14T12:24:30;10.60;99.90
16060;DHT22;8134;49.552;7.632;2023-03-14T12:26:57;10.70;99.90
16060;DHT22;8134;49.552;7.632;2023-03-14T12:29:23;10.60;99.90
16060;DHT22;8134;49.552;7.632;2023-03-14T12:34:28;10.50;99.90
16060;DHT22;8134;49.552;7.632;2023-03-14T12:39:39;10.30;99.90
16060;DHT22;8134;49.552;7.632;2023-03-14T12:44:44;10.40;99.90
16060;DHT22;8134;49.552;7.632;2023-03-14T12:49:51;10.50;99.90
16060;DHT22;8134;49.552;7.632;2023-03-14T12:52:22;10.50;99.90
16060;DHT22;8134;49.552;7.632;2023-03-14T12:57:45;10.10;99.90
16060;DHT22;8134;49.552;7.632;2023-03-14T13:00:18;9.70;99.90
16060;DHT22;8134;49.552;7.632;2023-03-14T13:02:45;8.70;99.90
16060;DHT22;8134;49.552;7.632;2023-03-14T13:05:12;8.40;99.90
16060;DHT22;8134;49.552;7.632;2023-03-14T13:12:47;7.80;99.90
16060;DHT22;8134;49.552;7.632;2023-03-14T13:17:48;7.80;99.90
16060;DHT22;8134;49.552;7.632;2023-03-14T13:20:28;7.80;99.90
16060;DHT22;8134;49.552;7.632;2023-03-14T13:22:54;7.70;99.90
16060;DHT22;8134;49.552;7.632;2023-03-14T13:25:20;7.90;99.90
16060;DHT22;8134;49.552;7.632;2023-03-14T13:27:47;7.90;99.90
16060;DHT22;8134;49.552;7.632;2023-03-14T13:30:17;8.30;99.90
16060;DHT22;8134;49.552;7.632;2023-03-14T13:32:43;8.40;99.90
16060;DHT22;8134;49.552;7.632;2023-03-14T13:37:44;8.80;99.90
16060;DHT22;8134;49.552;7.632;2023-03-14T13:40:20;9.20;99.90
16060;DHT22;8134;49.552;7.632;2023-03-14T13:42:46;9.50;99.90
16060;DHT22;8134;49.552;7.632;2023-03-14T13:45:12;9.80;99.90
16060;DHT22;8134;49.552;7.632;2023-03-14T13:47:38;9.90;99.90
16060;DHT22;8134;49.552;7.632;2023-03-14T13:50:04;9.90;99.90
16060;DHT22;8134;49.552;7.632;2023-03-14T13:52:36;10.00;99.90
16060;DHT22;8134;49.552;7.632;2023-03-14T13:55:02;10.10;99.90
16060;DHT22;8134;49.552;7.632;2023-03-14T13:57:42;9.90;99.90
16060;DHT22;8134;49.552;7.632;2023-03-14T14:00:16;9.70;99.90
16060;DHT22;8134;49.552;7.632;2023-03-14T14:02:42;9.70;99.90
16060;DHT22;8134;49.552;7.632;2023-03-14T14:05:10;9.50;99.90
16060;DHT22;8134;49.552;7.632;2023-03-14T14:07:35;9.60;99.90
16060;DHT22;8134;49.552;7.632;2023-03-14T14:10:03;9.80;99.90
16060;DHT22;8134;49.552;7.632;2023-03-14T14:12:33;9.90;99.90
16060;DHT22;8134;49.552;7.632;2023-03-14T14:15:02;10.00;99.90
16060;DHT22;8134;49.552;7.632;2023-03-14T14:17:39;10.00;99.90
16060;DHT22;8134;49.552;7.632;2023-03-14T14:20:07;9.80;99.90
16060;DHT22;8134;49.552;7.632;2023-03-14T14:22:33;9.90;99.90
16060;DHT22;8134;49.552;7.632;2023-03-14T14:24:59;10.00;99.90
16060;DHT22;8134;49.552;7.632;2023-03-14T14:27:29;10.00;99.90
16060;DHT22;8134;49.552;7.632;2023-03-14T14:30:04;10.00;99.90
16060;DHT22;8134;49.552;7.632;2023-03-14T14:32:34;9.90;99.90
16060;DHT22;8134;49.552;7.632;2023-03-14T14:35:00;10.00;99.90
16060;DHT22;8134;49.552;7.632;2023-03-14T14:39:53;10.20;99.90
16060;DHT22;8134;49.552;7.632;2023-03-14T14:42:19;10.20;99.90
16060;DHT22;8134;49.552;7.632;2023-03-14T14:44:47;10.30;99.90
16060;DHT22;8134;49.552;7.632;2023-03-14T14:47:15;10.20;99.90
16060;DHT22;8134;49.552;7.632;2023-03-14T14:49:43;10.30;99.90
16060;DHT22;8134;49.552;7.632;2023-03-14T14:54:37;10.60;99.90
16060;DHT22;8134;49.552;7.632;2023-03-14T14:57:04;10.80;99.90
16060;DHT22;8134;49.552;7.632;2023-03-14T14:59:30;10.90;99.90
16060;DHT22;8134;49.552;7.632;2023-03-14T15:01:59;11.00;99.90
16060;DHT22;8134;49.552;7.632;2023-03-14T15:04:25;11.00;99.90
16060;DHT22;8134;49.552;7.632;2023-03-14T15:06:50;11.10;99.90
16060;DHT22;8134;49.552;7.632;2023-03-14T15:09:18;11.20;99.90
16060;DHT22;8134;49.552;7.632;2023-03-14T15:11:43;11.20;99.90
16060;DHT22;8134;49.552;7.632;2023-03-14T15:14:09;11.10;99.90
16060;DHT22;8134;49.552;7.632;2023-03-14T15:16:34;11.00;99.90
16060;DHT22;8134;49.552;7.632;2023-03-14T15:19:01;11.10;99.90
16060;DHT22;8134;49.552;7.632;2023-03-14T15:21:30;11.30;99.90
16060;DHT22;8134;49.552;7.632;2023-03-14T15:23:56;11.30;99.90
16060;DHT22;8134;49.552;7.632;2023-03-14T15:26:23;11.30;99.90
16060;DHT22;8134;49.552;7.632;2023-03-14T15:28:49;11.20;99.90
16060;DHT22;8134;49.552;7.632;2023-03-14T15:31:15;11.20;99.90
16060;DHT22;8134;49.552;7.632;2023-03-14T15:33:43;11.10;99.90
16060;DHT22;8134;49.552;7.632;2023-03-14T15:36:26;11.30;99.90
16060;DHT22;8134;49.552;7.632;2023-03-14T15:38:52;11.40;99.90
16060;DHT22;8134;49.552;7.632;2023-03-14T15:41:18;11.70;99.90
16060;DHT22;8134;49.552;7.632;2023-03-14T15:43:44;11.60;99.90
16060;DHT22;8134;49.552;7.632;2023-03-14T15:46:10;11.60;99.90
16060;DHT22;8134;49.552;7.632;2023-03-14T15:48:36;11.60;99.90
16060;DHT22;8134;49.552;7.632;2023-03-14T15:51:01;11.50;99.90
16060;DHT22;8134;49.552;7.632;2023-03-14T15:53:27;11.30;99.90
16060;DHT22;8134;49.552;7.632;2023-03-14T15:55:52;11.30;99.90
16060;DHT22;8134;49.552;7.632;2023-03-14T15:58:18;11.10;99.90
16060;DHT22;8134;49.552;7.632;2023-03-14T16:00:44;11.00;99.90
16060;DHT22;8134;49.552;7.632;2023-03-14T16:03:09;10.90;99.90
16060;DHT22;8134;49.552;7.632;2023-03-14T16:05:36;10.80;99.90
16060;DHT22;8134;49.552;7.632;2023-03-14T16:08:01;10.80;99.90
16060;DHT22;8134;49.552;7.632;2023-03-14T16:10:28;10.70;99.90
16060;DHT22;8134;49.552;7.632;2023-03-14T16:12:53;10.70;99.90
16060;DHT22;8134;49.552;7.632;2023-03-14T16:15:19;10.60;99.90
16060;DHT22;8134;49.552;7.632;2023-03-14T16:17:44;10.60;99.90
16060;DHT22;8134;49.552;7.632;2023-03-14T16:20:10;10.50;99.90
16060;DHT22;8134;49.552;7.632;2023-03-14T16:22:36;10.40;99.90
16060;DHT22;8134;49.552;7.632;2023-03-14T16:25:03;10.40;99.90
16060;DHT22;8134;49.552;7.632;2023-03-14T16:27:29;10.30;99.90
16060;DHT22;8134;49.552;7.632;2023-03-14T16:29:56;10.20;99.90
16060;DHT22;8134;49.552;7.632;2023-03-14T16:32:21;10.20;99.90
16060;DHT22;8134;49.552;7.632;2023-03-14T16:34:47;10.20;99.90
16060;DHT22;8134;49.552;7.632;2023-03-14T16:37:12;10.20;99.90
16060;DHT22;8134;49.552;7.632;2023-03-14T16:39:38;10.20;99.90
16060;DHT22;8134;49.552;7.632;2023-03-14T16:42:03;10.20;99.90
16060;DHT22;8134;49.552;7.632;2023-03-14T16:44:29;10.20;99.90
16060;DHT22;8134;49.552;7.632;2023-03-14T16:46:56;10.20;99.90
16060;DHT22;8134;49.552;7.632;2023-03-14T16:49:21;10.00;99.90
16060;DHT22;8134;49.552;7.632;2023-03-14T16:51:46;10.00;99.90
16060;DHT22;8134;49.552;7.632;2023-03-14T16:54:12;9.90;99.90
16060;DHT22;8134;49.552;7.632;2023-03-14T16:56:38;9.70;99.90
16060;DHT22;8134;49.552;7.632;2023-03-14T16:59:03;9.70;99.90
16060;DHT22;8134;49.552;7.632;2023-03-14T17:01:29;9.70;99.90
16060;DHT22;8134;49.552;7.632;2023-03-14T17:03:54;9.40;99.90
16060;DHT22;8134;49.552;7.632;2023-03-14T17:06:28;9.50;99.90
16060;DHT22;8134;49.552;7.632;2023-03-14T17:08:55;9.30;99.90
16060;DHT22;8134;49.552;7.632;2023-03-14T17:11:21;9.30;99.90
16060;DHT22;8134;49.552;7.632;2023-03-14T17:13:47;9.30;99.90
16060;DHT22;8134;49.552;7.632;2023-03-14T17:16:12;9.20;99.90
16060;DHT22;8134;49.552;7.632;2023-03-14T17:18:38;9.00;99.90
16060;DHT22;8134;49.552;7.632;2023-03-14T17:21:04;9.00;99.90
16060;DHT22;8134;49.552;7.632;2023-03-14T17:23:30;8.80;99.90
16060;DHT22;8134;49.552;7.632;2023-03-14T17:25:56;8.80;99.90
16060;DHT22;8134;49.552;7.632;2023-03-14T17:28:22;8.70;99.90
16060;DHT22;8134;49.552;7.632;2023-03-14T17:30:48;8.60;99.90
16060;DHT22;8134;49.552;7.632;2023-03-14T17:33:14;8.60;99.90
16060;DHT22;8134;49.552;7.632;2023-03-14T17:35:41;8.50;99.90
16060;DHT22;8134;49.552;7.632;2023-03-14T17:38:07;8.50;99.90
16060;DHT22;8134;49.552;7.632;2023-03-14T17:40:32;8.50;99.90
16060;DHT22;8134;49.552;7.632;2023-03-14T17:42:57;8.50;99.90
16060;DHT22;8134;49.552;7.632;2023-03-14T17:45:23;8.60;99.90
16060;DHT22;8134;49.552;7.632;2023-03-14T17:47:48;8.70;99.90
16060;DHT22;8134;49.552;7.632;2023-03-14T17:50:14;8.80;99.90
16060;DHT22;8134;49.552;7.632;2023-03-14T17:52:39;8.80;99.90
16060;DHT22;8134;49.552;7.632;2023-03-14T17:55:05;8.80;99.90
16060;DHT22;8134;49.552;7.632;2023-03-14T17:57:31;8.80;99.90
16060;DHT22;8134;49.552;7.632;2023-03-14T17:59:56;8.70;99.90
16060;DHT22;8134;49.552;7.632;2023-03-14T18:02:22;8.60;99.90
16060;DHT22;8134;49.552;7.632;2023-03-14T18:04:48;8.60;99.90
16060;DHT22;8134;49.552;7.632;2023-03-14T18:07:14;8.60;99.90
16060;DHT22;8134;49.552;7.632;2023-03-14T18:09:40;8.50;99.90
16060;DHT22;8134;49.552;7.632;2023-03-14T18:12:05;8.50;99.90
16060;DHT22;8134;49.552;7.632;2023-03-14T18:14:31;8.50;99.90
16060;DHT22;8134;49.552;7.632;2023-03-14T18:16:56;8.50;99.90
16060;DHT22;8134;49.552;7.632;2023-03-14T18:19:22;8.50;99.90
16060;DHT22;8134;49.552;7.632;2023-03-14T18:21:48;8.40;99.90
16060;DHT22;8134;49.552;7.632;2023-03-14T18:24:19;8.30;99.90
16060;DHT22;8134;49.552;7.632;2023-03-14T18:26:44;8.20;99.90
16060;DHT22;8134;49.552;7.632;2023-03-14T18:29:10;8.00;99.90
16060;DHT22;8134;49.552;7.632;2023-03-14T18:31:39;8.00;99.90
16060;DHT22;8134;49.552;7.632;2023-03-14T18:34:05;8.00;99.90
16060;DHT22;8134;49.552;7.632;2023-03-14T18:36:30;7.90;99.90
16060;DHT22;8134;49.552;7.632;2023-03-14T18:38:56;7.90;99.90
16060;DHT22;8134;49.552;7.632;2023-03-14T18:41:23;8.00;99.90
16060;DHT22;8134;49.552;7.632;2023-03-14T18:43:48;8.20;99.90
16060;DHT22;8134;49.552;7.632;2023-03-14T18:46:14;8.10;99.90
16060;DHT22;8134;49.552;7.632;2023-03-14T18:48:40;8.20;99.90
16060;DHT22;8134;49.552;7.632;2023-03-14T18:51:09;8.00;99.90
16060;DHT22;8134;49.552;7.632;2023-03-14T18:53:37;8.10;99.90
16060;DHT22;8134;49.552;7.632;2023-03-14T18:56:02;8.30;99.90
16060;DHT22;8134;49.552;7.632;2023-03-14T18:58:28;8.40;99.90
16060;DHT22;8134;49.552;7.632;2023-03-14T19:00:57;8.40;99.90
16060;DHT22;8134;49.552;7.632;2023-03-14T19:03:23;8.40;99.90
16060;DHT22;8134;49.552;7.632;2023-03-14T19:05:54;8.20;99.90
16060;DHT22;8134;49.552;7.632;2023-03-14T19:08:21;7.70;99.90
16060;DHT22;8134;49.552;7.632;2023-03-14T19:10:51;7.20;99.90
16060;DHT22;8134;49.552;7.632;2023-03-14T19:13:19;6.70;99.90
16060;DHT22;8134;49.552;7.632;2023-03-14T19:15:44;6.30;99.90
16060;DHT22;8134;49.552;7.632;2023-03-14T19:18:10;6.00;99.90
16060;DHT22;8134;49.552;7.632;2023-03-14T19:20:36;5.80;99.90
16060;DHT22;8134;49.552;7.632;2023-03-14T19:23:01;5.70;99.90
16060;DHT22;8134;49.552;7.632;2023-03-14T19:25:27;5.40;99.90
16060;DHT22;8134;49.552;7.632;2023-03-14T19:27:52;5.00;99.90
16060;DHT22;8134;49.552;7.632;2023-03-14T19:30:18;4.70;99.90
16060;DHT22;8134;49.552;7.632;2023-03-14T19:32:43;4.50;99.90
16060;DHT22;8134;49.552;7.632;2023-03-14T19:35:09;4.50;99.90
16060;DHT22;8134;49.552;7.632;2023-03-14T19:37:34;4.20;99.90
16060;DHT22;8134;49.552;7.632;2023-03-14T19:40:00;4.30;99.90
16060;DHT22;8134;49.552;7.632;2023-03-14T19:42:25;4.20;99.90
16060;DHT22;8134;49.552;7.632;2023-03-14T19:44:51;4.40;99.90
16060;DHT22;8134;49.552;7.632;2023-03-14T19:47:18;4.10;99.90
16060;DHT22;8134;49.552;7.632;2023-03-14T19:49:44;3.90;99.90
16060;DHT22;8134;49.552;7.632;2023-03-14T19:52:09;4.00;99.90
16060;DHT22;8134;49.552;7.632;2023-03-14T19:54:34;3.80;99.90
16060;DHT22;8134;49.552;7.632;2023-03-14T19:57:00;3.70;99.90
16060;DHT22;8134;49.552;7.632;2023-03-14T19:59:29;3.70;99.90
16060;DHT22;8134;49.552;7.632;2023-03-14T20:01:55;3.70;99.90
16060;DHT22;8134;49.552;7.632;2023-03-14T20:04:23;3.70;99.90
16060;DHT22;8134;49.552;7.632;2023-03-14T20:06:50;3.80;99.90
16060;DHT22;8134;49.552;7.632;2023-03-14T20:09:20;3.60;99.90
16060;DHT22;8134;49.552;7.632;2023-03-14T20:11:46;3.50;99.90
16060;DHT22;8134;49.552;7.632;2023-03-14T20:14:11;3.40;99.90
16060;DHT22;8134;49.552;7.632;2023-03-14T20:16:40;3.50;99.90
16060;DHT22;8134;49.552;7.632;2023-03-14T20:19:07;3.40;99.90
16060;DHT22;8134;49.552;7.632;2023-03-14T20:21:33;3.50;99.90
16060;DHT22;8134;49.552;7.632;2023-03-14T20:23:58;3.70;99.90
16060;DHT22;8134;49.552;7.632;2023-03-14T20:26:24;3.60;99.90
16060;DHT22;8134;49.552;7.632;2023-03-14T20:28:51;3.60;99.90
16060;DHT22;8134;49.552;7.632;2023-03-14T20:31:18;3.60;99.90
16060;DHT22;8134;49.552;7.632;2023-03-14T20:33:44;3.70;99.90
16060;DHT22;8134;49.552;7.632;2023-03-14T20:36:09;3.70;99.90
16060;DHT22;8134;49.552;7.632;2023-03-14T20:38:35;4.00;99.90
16060;DHT22;8134;49.552;7.632;2023-03-14T20:41:01;4.10;99.90
16060;DHT22;8134;49.552;7.632;2023-03-14T20:43:27;4.30;99.90
16060;DHT22;8134;49.552;7.632;2023-03-14T20:45:53;4.30;99.90
16060;DHT22;8134;49.552;7.632;2023-03-14T20:48:19;4.20;99.90
16060;DHT22;8134;49.552;7.632;2023-03-14T20:50:45;4.00;99.90
16060;DHT22;8134;49.552;7.632;2023-03-14T20:53:11;3.80;99.90
16060;DHT22;8134;49.552;7.632;2023-03-14T20:55:36;3.90;99.90
16060;DHT22;8134;49.552;7.632;2023-03-14T20:58:02;3.90;99.90
16060;DHT22;8134;49.552;7.632;2023-03-14T21:00:27;4.00;99.90
16060;DHT22;8134;49.552;7.632;2023-03-14T21:02:53;4.00;99.90
16060;DHT22;8134;49.552;7.632;2023-03-14T21:05:18;4.10;99.90
16060;DHT22;8134;49.552;7.632;2023-03-14T21:07:44;4.00;99.90
16060;DHT22;8134;49.552;7.632;2023-03-14T21:10:10;4.10;99.90
16060;DHT22;8134;49.552;7.632;2023-03-14T21:12:36;4.10;99.90
16060;DHT22;8134;49.552;7.632;2023-03-14T21:15:02;4.10;99.90
16060;DHT22;8134;49.552;7.632;2023-03-14T21:17:28;4.00;99.90
16060;DHT22;8134;49.552;7.632;2023-03-14T21:19:53;4.00;99.90
16060;DHT22;8134;49.552;7.632;2023-03-14T21:22:23;4.00;99.90
16060;DHT22;8134;49.552;7.632;2023-03-14T21:24:48;4.10;99.90
16060;DHT22;8134;49.552;7.632;2023-03-14T21:27:14;4.00;99.90
16060;DHT22;8134;49.552;7.632;2023-03-14T21:29:40;4.00;99.90
16060;DHT22;8134;49.552;7.632;2023-03-14T21:32:06;4.00;99.90
16060;DHT22;8134;49.552;7.632;2023-03-14T21:34:31;4.00;99.90
16060;DHT22;8134;49.552;7.632;2023-03-14T21:36:57;4.00;99.90
16060;DHT22;8134;49.552;7.632;2023-03-14T21:39:22;4.00;99.90
16060;DHT22;8134;49.552;7.632;2023-03-14T21:41:48;4.00;99.90
16060;DHT22;8134;49.552;7.632;2023-03-14T21:44:13;4.00;99.90
16060;DHT22;8134;49.552;7.632;2023-03-14T21:46:43;4.00;99.90
16060;DHT22;8134;49.552;7.632;2023-03-14T21:49:10;4.10;99.90
16060;DHT22;8134;49.552;7.632;2023-03-14T21:51:36;4.10;99.90
16060;DHT22;8134;49.552;7.632;2023-03-14T21:54:01;4.10;99.90
16060;DHT22;8134;49.552;7.632;2023-03-14T21:56:36;4.00;99.90
16060;DHT22;8134;49.552;7.632;2023-03-14T21:59:02;4.00;99.90
16060;DHT22;8134;49.552;7.632;2023-03-14T22:01:28;3.90;99.90
16060;DHT22;8134;49.552;7.632;2023-03-14T22:03:53;3.90;99.90
16060;DHT22;8134;49.552;7.632;2023-03-14T22:06:19;3.90;99.90
16060;DHT22;8134;49.552;7.632;2023-03-14T22:08:45;4.10;99.90
16060;DHT22;8134;49.552;7.632;2023-03-14T22:11:10;3.90;99.90
16060;DHT22;8134;49.552;7.632;2023-03-14T22:13:36;4.10;99.90
16060;DHT22;8134;49.552;7.632;2023-03-14T22:16:02;4.00;99.90
16060;DHT22;8134;49.552;7.632;2023-03-14T22:18:27;4.10;99.90
16060;DHT22;8134;49.552;7.632;2023-03-14T22:20:54;4.00;99.90
16060;DHT22;8134;49.552;7.632;2023-03-14T22:23:19;4.00;99.90
16060;DHT22;8134;49.552;7.632;2023-03-14T22:25:46;4.10;99.90
16060;DHT22;8134;49.552;7.632;2023-03-14T22:28:13;4.10;99.90
16060;DHT22;8134;49.552;7.632;2023-03-14T22:30:39;4.20;99.90
16060;DHT22;8134;49.552;7.632;2023-03-14T22:33:05;4.20;99.90
16060;DHT22;8134;49.552;7.632;2023-03-14T22:35:30;4.00;99.90
16060;DHT22;8134;49.552;7.632;2023-03-14T22:37:56;4.00;99.90
16060;DHT22;8134;49.552;7.632;2023-03-14T22:40:21;3.80;99.90
16060;DHT22;8134;49.552;7.632;2023-03-14T22:42:49;3.90;99.90
16060;DHT22;8134;49.552;7.632;2023-03-14T22:45:15;3.80;99.90
16060;DHT22;8134;49.552;7.632;2023-03-14T22:47:41;3.70;99.90
16060;DHT22;8134;49.552;7.632;2023-03-14T22:50:06;3.80;99.90
16060;DHT22;8134;49.552;7.632;2023-03-14T22:52:32;3.70;99.90
16060;DHT22;8134;49.552;7.632;2023-03-14T22:54:57;3.60;99.90
16060;DHT22;8134;49.552;7.632;2023-03-14T22:57:23;3.50;99.90
16060;DHT22;8134;49.552;7.632;2023-03-14T22:59:48;3.30;99.90
16060;DHT22;8134;49.552;7.632;2023-03-14T23:02:14;3.20;99.90
16060;DHT22;8134;49.552;7.632;2023-03-14T23:04:39;3.20;99.90
16060;DHT22;8134;49.552;7.632;2023-03-14T23:07:05;3.30;99.90
16060;DHT22;8134;49.552;7.632;2023-03-14T23:09:30;3.20;99.90
16060;DHT22;8134;49.552;7.632;2023-03-14T23:11:56;3.20;99.90
16060;DHT22;8134;49.552;7.632;2023-03-14T23:14:21;3.30;99.90
16060;DHT22;8134;49.552;7.632;2023-03-14T23:16:48;3.30;99.90
16060;DHT22;8134;49.552;7.632;2023-03-14T23:19:13;3.40;99.90
16060;DHT22;8134;49.552;7.632;2023-03-14T23:21:39;3.50;99.90
16060;DHT22;8134;49.552;7.632;2023-03-14T23:24:05;3.50;99.90
16060;DHT22;8134;49.552;7.632;2023-03-14T23:26:30;3.50;99.90
16060;DHT22;8134;49.552;7.632;2023-03-14T23:28:59;3.40;99.90
16060;DHT22;8134;49.552;7.632;2023-03-14T23:31:25;3.50;99.90
16060;DHT22;8134;49.552;7.632;2023-03-14T23:33:50;3.50;99.90
16060;DHT22;8134;49.552;7.632;2023-03-14T23:36:16;3.40;99.90
16060;DHT22;8134;49.552;7.632;2023-03-14T23:38:46;3.20;99.90
16060;DHT22;8134;49.552;7.632;2023-03-14T23:41:12;2.90;99.90
16060;DHT22;8134;49.552;7.632;2023-03-14T23:43:45;2.90;99.90
16060;DHT22;8134;49.552;7.632;2023-03-14T23:46:11;2.90;99.90
16060;DHT22;8134;49.552;7.632;2023-03-14T23:48:36;2.70;99.90
16060;DHT22;8134;49.552;7.632;2023-03-14T23:51:03;2.80;99.90
16060;DHT22;8134;49.552;7.632;2023-03-14T23:53:29;2.80;99.90
16060;DHT22;8134;49.552;7.632;2023-03-14T23:55:54;2.90;99.90
16060;DHT22;8134;49.552;7.632;2023-03-14T23:58:20;2.90;99.90
